createdAt,value
2023-05-24T00:01:32.972Z,4.63
2023-05-24T00:04:02.486Z,4.63
2023-05-24T00:06:35.028Z,3.80
2023-05-24T00:09:03.185Z,4.22
2023-05-24T00:11:31.297Z,4.50
2023-05-24T00:13:59.808Z,4.57
2023-05-24T00:16:27.976Z,4.28
2023-05-24T00:18:58.432Z,4.38
2023-05-24T00:21:27.901Z,4.30
2023-05-24T00:24:06.704Z,4.78
2023-05-24T00:26:34.753Z,5.25
2023-05-24T00:29:03.114Z,4.15
2023-05-24T00:31:31.613Z,5.10
2023-05-24T00:33:59.798Z,4.53
2023-05-24T00:36:33.223Z,5.07
2023-05-24T00:39:01.394Z,5.00
2023-05-24T00:41:29.526Z,4.95
2023-05-24T00:43:57.803Z,4.43
2023-05-24T00:46:30.112Z,4.45
2023-05-24T00:48:58.694Z,4.90
2023-05-24T00:51:28.038Z,4.50
2023-05-24T00:53:58.461Z,5.57
2023-05-24T00:56:27.848Z,4.90
2023-05-24T00:58:57.126Z,5.35
2023-05-24T01:01:26.799Z,4.95
2023-05-24T01:03:55.632Z,4.80
2023-05-24T01:06:25.077Z,5.32
2023-05-24T01:09:09.963Z,4.88
2023-05-24T01:11:50.854Z,4.38
2023-05-24T01:14:36.886Z,5.75
2023-05-24T01:17:11.014Z,4.70
2023-05-24T01:20:00.010Z,5.65
2023-05-24T01:23:07.270Z,5.30
2023-05-24T01:26:04.361Z,4.68
2023-05-24T01:28:35.691Z,5.85
2023-05-24T01:31:05.197Z,5.80
2023-05-24T01:33:33.946Z,5.05
2023-05-24T01:36:01.938Z,7.10
2023-05-24T01:38:30.310Z,5.50
2023-05-24T01:41:05.900Z,5.60
2023-05-24T01:43:41.215Z,5.50
2023-05-24T01:46:19.441Z,5.55
2023-05-24T01:48:56.905Z,5.18
2023-05-24T01:51:28.944Z,5.50
2023-05-24T01:54:00.498Z,6.15
2023-05-24T01:56:32.195Z,5.28
2023-05-24T01:59:03.562Z,5.75
2023-05-24T02:01:32.761Z,5.72
2023-05-24T02:04:01.079Z,6.15
2023-05-24T02:06:29.314Z,4.90
2023-05-24T02:08:57.374Z,4.80
2023-05-24T02:11:26.230Z,5.15
2023-05-24T02:13:54.349Z,5.07
2023-05-24T02:16:26.986Z,7.13
2023-05-24T02:18:55.352Z,5.18
2023-05-24T02:21:24.450Z,5.22
2023-05-24T02:23:52.688Z,7.05
2023-05-24T02:26:20.722Z,4.15
2023-05-24T02:28:48.976Z,5.75
2023-05-24T02:31:17.029Z,5.88
2023-05-24T02:33:46.718Z,5.50
2023-05-24T02:36:14.801Z,6.45
2023-05-24T02:38:42.962Z,5.32
2023-05-24T02:41:11.963Z,5.80
2023-05-24T02:43:39.982Z,5.70
2023-05-24T02:46:08.204Z,5.50
2023-05-24T02:48:36.831Z,5.35
2023-05-24T02:51:06.755Z,4.85
2023-05-24T02:53:34.946Z,5.07
2023-05-24T02:56:03.070Z,5.20
2023-05-24T02:58:33.351Z,5.20
2023-05-24T03:01:01.673Z,5.70
2023-05-24T03:03:30.938Z,5.65
2023-05-24T03:05:59.349Z,6.13
2023-05-24T03:08:29.428Z,5.90
2023-05-24T03:10:57.480Z,5.95
2023-05-24T03:13:25.848Z,5.60
2023-05-24T03:15:53.803Z,6.30
2023-05-24T03:18:22.148Z,6.22
2023-05-24T03:20:50.335Z,5.25
2023-05-24T03:23:18.420Z,5.93
2023-05-24T03:25:47.821Z,5.88
2023-05-24T03:28:15.876Z,5.25
2023-05-24T03:30:45.363Z,5.72
2023-05-24T03:33:13.736Z,5.45
2023-05-24T03:35:42.155Z,6.38
2023-05-24T03:38:11.062Z,5.43
2023-05-24T03:40:41.762Z,5.68
2023-05-24T03:43:21.380Z,4.97
2023-05-24T03:45:54.272Z,6.03
2023-05-24T03:48:22.413Z,5.70
2023-05-24T03:50:52.526Z,5.05
2023-05-24T03:53:23.442Z,4.72
2023-05-24T03:55:52.249Z,5.05
2023-05-24T03:58:22.472Z,5.57
2023-05-24T04:00:51.580Z,5.90
2023-05-24T04:03:20.372Z,5.22
2023-05-24T04:05:49.080Z,5.43
2023-05-24T04:08:17.276Z,5.10
2023-05-24T04:10:45.493Z,5.32
2023-05-24T04:13:13.935Z,4.90
2023-05-24T04:15:43.577Z,5.95
2023-05-24T04:18:13.125Z,5.30
2023-05-24T04:20:41.772Z,5.40
2023-05-24T04:23:11.010Z,5.97
2023-05-24T04:25:38.984Z,4.68
2023-05-24T04:28:08.486Z,6.07
2023-05-24T04:30:36.858Z,4.93
2023-05-24T04:33:06.457Z,5.60
2023-05-24T04:35:35.652Z,5.15
2023-05-24T04:38:04.014Z,5.10
2023-05-24T04:40:32.550Z,5.60
2023-05-24T04:43:01.177Z,5.60
2023-05-24T04:45:30.819Z,6.20
2023-05-24T04:47:58.936Z,6.55
2023-05-24T04:50:29.560Z,6.53
2023-05-24T04:52:57.803Z,7.15
2023-05-24T04:55:26.109Z,5.00
2023-05-24T04:57:54.041Z,5.13
2023-05-24T05:00:22.966Z,5.75
2023-05-24T05:02:51.395Z,4.82
2023-05-24T05:05:20.161Z,7.18
2023-05-24T05:07:49.768Z,5.90
2023-05-24T05:10:17.904Z,5.93
2023-05-24T05:12:45.902Z,5.65
2023-05-24T05:15:13.953Z,5.82
2023-05-24T05:17:42.256Z,5.75
2023-05-24T05:20:10.663Z,4.60
2023-05-24T05:22:39.017Z,4.93
2023-05-24T05:25:09.584Z,5.32
2023-05-24T05:27:37.527Z,5.80
2023-05-24T05:30:06.415Z,6.38
2023-05-24T05:32:34.414Z,4.88
2023-05-24T05:35:02.689Z,6.18
2023-05-24T05:37:31.777Z,5.55
2023-05-24T05:40:00.052Z,5.95
2023-05-24T05:42:29.730Z,5.32
2023-05-24T05:44:58.503Z,6.25
2023-05-24T05:47:26.694Z,6.45
2023-05-24T05:49:54.742Z,5.88
2023-05-24T05:52:22.765Z,4.40
2023-05-24T05:54:51.044Z,4.65
2023-05-24T05:57:24.448Z,5.07
2023-05-24T05:59:54.344Z,5.88
2023-05-24T06:02:23.045Z,5.30
2023-05-24T06:04:51.809Z,5.53
2023-05-24T06:07:20.132Z,5.63
2023-05-24T06:09:48.321Z,5.78
2023-05-24T06:12:16.732Z,6.38
2023-05-24T06:14:45.117Z,5.07
2023-05-24T06:17:14.705Z,4.97
2023-05-24T06:19:43.552Z,5.05
2023-05-24T06:22:12.732Z,5.13
2023-05-24T06:24:42.082Z,5.53
2023-05-24T06:27:10.600Z,5.43
2023-05-24T06:29:38.839Z,5.78
2023-05-24T06:32:07.962Z,5.25
2023-05-24T06:34:37.513Z,5.05
2023-05-24T06:37:06.040Z,4.70
2023-05-24T06:39:34.357Z,4.60
2023-05-24T06:42:02.512Z,5.38
2023-05-24T06:44:37.703Z,5.50
2023-05-24T06:47:06.993Z,4.90
2023-05-24T06:49:37.435Z,5.80
2023-05-24T06:52:07.592Z,5.30
2023-05-24T06:54:36.234Z,5.00
2023-05-24T06:57:05.428Z,5.55
2023-05-24T06:59:33.672Z,6.65
2023-05-24T07:02:03.780Z,5.30
2023-05-24T07:04:32.929Z,5.53
2023-05-24T07:10:36.447Z,5.50
2023-05-24T07:13:04.663Z,4.95
2023-05-24T07:15:32.732Z,5.32
2023-05-24T07:18:01.173Z,5.07
2023-05-24T07:20:29.613Z,5.43
2023-05-24T07:23:00.707Z,4.88
2023-05-24T07:25:29.113Z,4.78
2023-05-24T07:27:57.492Z,4.57
2023-05-24T07:32:59.211Z,4.82
2023-05-24T07:35:28.704Z,5.80
2023-05-24T07:37:56.853Z,4.72
2023-05-24T07:40:27.037Z,6.00
2023-05-24T07:42:55.212Z,4.47
2023-05-24T07:45:23.589Z,6.65
2023-05-24T07:47:52.796Z,5.25
2023-05-24T07:50:21.960Z,5.10
2023-05-24T07:52:56.126Z,5.97
2023-05-24T07:55:24.534Z,4.90
2023-05-24T07:57:54.088Z,5.32
2023-05-24T08:00:23.355Z,5.00
2023-05-24T08:02:52.381Z,5.90
2023-05-24T08:05:20.726Z,5.00
2023-05-24T08:07:49.275Z,4.90
2023-05-24T08:10:18.812Z,6.05
2023-05-24T08:12:47.017Z,6.00
2023-05-24T08:15:16.624Z,5.55
2023-05-24T08:17:44.689Z,6.10
2023-05-24T08:20:14.851Z,4.95
2023-05-24T08:22:43.311Z,4.90
2023-05-24T08:25:13.189Z,7.55
2023-05-24T08:27:41.456Z,5.38
2023-05-24T08:30:13.677Z,5.38
2023-05-24T08:32:43.332Z,6.00
2023-05-24T08:35:21.132Z,6.25
2023-05-24T08:37:50.261Z,6.30
2023-05-24T08:40:18.581Z,5.28
2023-05-24T08:42:47.112Z,5.35
2023-05-24T08:45:16.886Z,5.18
2023-05-24T08:47:48.067Z,5.43
2023-05-24T08:50:19.434Z,6.63
2023-05-24T08:52:47.897Z,5.72
2023-05-24T08:55:16.639Z,5.35
2023-05-24T08:57:46.569Z,6.40
2023-05-24T09:00:16.834Z,6.20
2023-05-24T09:05:17.234Z,5.25
2023-05-24T09:07:46.508Z,5.43
2023-05-24T09:10:14.710Z,5.40
2023-05-24T09:12:49.236Z,5.63
2023-05-24T09:15:19.287Z,5.60
2023-05-24T09:17:49.064Z,6.32
2023-05-24T09:20:17.363Z,5.57
2023-05-24T09:22:50.224Z,5.40
2023-05-24T09:25:20.369Z,5.55
2023-05-24T09:27:52.163Z,5.30
2023-05-24T09:30:21.175Z,5.80
2023-05-24T09:32:58.712Z,6.07
2023-05-24T09:35:28.395Z,5.10
2023-05-24T09:37:59.984Z,5.47
2023-05-24T09:40:30.877Z,6.20
2023-05-24T09:43:07.415Z,7.22
2023-05-24T09:45:40.419Z,5.63
2023-05-24T09:48:13.766Z,6.20
2023-05-24T09:50:42.248Z,6.15
2023-05-24T09:53:10.825Z,5.78
2023-05-24T09:55:39.407Z,5.85
2023-05-24T09:58:09.041Z,5.80
2023-05-24T10:00:41.257Z,5.80
2023-05-24T10:03:12.601Z,6.32
2023-05-24T10:05:45.135Z,6.07
2023-05-24T10:08:14.538Z,6.15
2023-05-24T10:10:45.499Z,5.88
2023-05-24T10:13:16.149Z,6.40
2023-05-24T10:15:45.213Z,5.28
2023-05-24T10:18:14.324Z,4.95
2023-05-24T10:20:44.653Z,5.72
2023-05-24T10:23:16.475Z,6.13
2023-05-24T10:25:53.861Z,5.18
2023-05-24T10:28:25.214Z,5.82
2023-05-24T10:31:04.311Z,6.75
2023-05-24T10:33:36.122Z,7.30
2023-05-24T10:36:09.904Z,6.32
2023-05-24T10:38:40.783Z,6.55
2023-05-24T10:41:09.644Z,6.10
2023-05-24T10:43:38.885Z,6.45
2023-05-24T10:46:09.923Z,5.95
2023-05-24T10:48:39.713Z,6.07
2023-05-24T10:51:35.526Z,6.03
2023-05-24T10:54:17.879Z,6.00
2023-05-24T10:56:47.896Z,6.20
2023-05-24T10:59:35.103Z,6.47
2023-05-24T11:02:03.925Z,7.78
2023-05-24T11:04:33.523Z,5.80
2023-05-24T11:07:09.587Z,6.68
2023-05-24T11:09:38.018Z,6.10
2023-05-24T11:12:09.747Z,5.60
2023-05-24T11:14:39.854Z,5.93
2023-05-24T11:17:08.815Z,5.35
2023-05-24T11:19:39.154Z,6.32
2023-05-24T11:22:09.823Z,5.88
2023-05-24T11:24:38.373Z,5.70
2023-05-24T11:27:07.141Z,5.35
2023-05-24T11:29:41.953Z,5.63
2023-05-24T11:32:10.531Z,5.82
2023-05-24T11:34:40.105Z,6.20
2023-05-24T11:37:09.726Z,5.20
2023-05-24T11:39:39.152Z,6.75
2023-05-24T11:42:08.676Z,6.32
2023-05-24T11:44:39.161Z,6.68
2023-05-24T11:47:08.830Z,8.15
2023-05-24T11:49:37.500Z,6.30
2023-05-24T11:52:06.500Z,6.75
2023-05-24T11:54:37.395Z,7.20
2023-05-24T11:57:06.596Z,6.15
2023-05-24T11:59:37.830Z,5.55
2023-05-24T12:02:08.727Z,7.18
2023-05-24T12:04:36.959Z,5.65
2023-05-24T12:07:05.629Z,5.22
2023-05-24T12:09:35.068Z,5.55
2023-05-24T12:12:03.089Z,5.60
2023-05-24T12:14:33.933Z,6.13
2023-05-24T12:17:01.937Z,6.35
2023-05-24T12:19:34.676Z,5.57
2023-05-24T12:22:05.890Z,5.65
2023-05-24T12:24:35.448Z,6.20
2023-05-24T12:27:07.323Z,5.75
2023-05-24T12:29:36.971Z,5.13
2023-05-24T12:32:05.825Z,5.90
2023-05-24T12:34:33.972Z,5.70
2023-05-24T12:37:02.045Z,5.70
2023-05-24T12:39:34.349Z,6.90
2023-05-24T12:42:04.908Z,6.82
2023-05-24T12:44:35.073Z,6.03
2023-05-24T12:47:04.262Z,6.85
2023-05-24T12:49:32.870Z,6.50
2023-05-24T12:52:02.692Z,6.40
2023-05-24T12:54:31.216Z,6.50
2023-05-24T12:57:02.642Z,5.80
2023-05-24T12:59:32.377Z,5.93
2023-05-24T13:02:00.769Z,6.75
2023-05-24T13:04:30.652Z,5.50
2023-05-24T13:06:58.767Z,5.32
2023-05-24T13:09:26.947Z,4.97
2023-05-24T13:11:55.991Z,4.75
2023-05-24T13:14:24.077Z,5.00
2023-05-24T13:16:53.526Z,4.68
2023-05-24T13:19:21.635Z,4.18
2023-05-24T13:21:49.609Z,4.43
2023-05-24T13:24:17.962Z,4.05
2023-05-24T13:26:47.031Z,4.20
2023-05-24T13:31:46.215Z,4.70
2023-05-24T13:34:15.738Z,4.05
2023-05-24T13:36:44.415Z,4.20
2023-05-24T13:39:15.984Z,5.10
2023-05-24T13:41:44.822Z,3.95
2023-05-24T13:44:13.329Z,4.55
2023-05-24T13:46:41.996Z,3.88
2023-05-24T13:49:11.189Z,3.70
2023-05-24T13:51:41.197Z,4.68
2023-05-24T13:54:09.197Z,4.60
2023-05-24T13:56:38.729Z,4.43
2023-05-24T13:59:08.458Z,4.00
2023-05-24T14:01:37.827Z,4.22
2023-05-24T14:04:06.950Z,4.85
2023-05-24T14:06:37.644Z,4.60
2023-05-24T14:09:08.424Z,5.05
2023-05-24T14:11:36.821Z,4.65
2023-05-24T14:16:36.791Z,4.93
2023-05-24T14:19:05.412Z,4.40
2023-05-24T14:21:33.514Z,3.75
2023-05-24T14:24:01.780Z,4.25
2023-05-24T14:26:31.288Z,4.43
2023-05-24T14:28:59.359Z,3.80
2023-05-24T14:31:27.595Z,4.30
2023-05-24T14:33:55.591Z,3.92
2023-05-24T14:36:23.574Z,3.83
2023-05-24T14:38:51.706Z,4.60
2023-05-24T14:41:19.705Z,4.72
2023-05-24T14:43:49.156Z,4.85
2023-05-24T14:46:17.172Z,4.65
2023-05-24T14:48:45.269Z,4.20
2023-05-24T14:51:13.321Z,4.63
2023-05-24T14:53:41.221Z,5.15
2023-05-24T14:56:10.148Z,4.82
2023-05-24T14:58:38.180Z,3.42
2023-05-24T15:01:08.099Z,4.18
2023-05-24T15:03:36.545Z,4.57
2023-05-24T15:06:06.316Z,5.53
2023-05-24T15:08:35.348Z,4.47
2023-05-24T15:11:03.420Z,4.07
2023-05-24T15:13:31.355Z,4.32
2023-05-24T15:16:00.756Z,4.88
2023-05-24T15:18:32.187Z,4.20
2023-05-24T15:21:00.381Z,4.07
2023-05-24T15:23:28.508Z,4.05
2023-05-24T15:25:56.448Z,3.28
2023-05-24T15:28:26.403Z,4.50
2023-05-24T15:30:55.554Z,4.93
2023-05-24T15:33:23.716Z,4.50
2023-05-24T15:35:53.239Z,3.28
2023-05-24T15:38:21.535Z,4.63
2023-05-24T15:40:49.694Z,3.97
2023-05-24T15:43:19.539Z,3.97
2023-05-24T15:45:48.317Z,5.15
2023-05-24T15:48:16.415Z,4.78
2023-05-24T15:51:09.200Z,5.15
2023-05-24T15:53:33.828Z,4.78
2023-05-24T15:56:01.967Z,3.65
2023-05-24T15:58:30.350Z,4.30
2023-05-24T16:00:58.285Z,3.50
2023-05-24T16:03:26.644Z,3.20
2023-05-24T16:05:54.735Z,3.33
2023-05-24T16:08:27.467Z,4.20
2023-05-24T16:10:57.367Z,4.10
2023-05-24T16:13:25.641Z,3.42
2023-05-24T16:15:53.875Z,2.95
2023-05-24T16:18:23.401Z,3.92
2023-05-24T16:20:52.035Z,4.03
2023-05-24T16:23:22.831Z,3.95
2023-05-24T16:25:50.904Z,3.17
2023-05-24T16:28:24.142Z,3.47
2023-05-24T16:30:55.720Z,4.00
2023-05-24T16:33:24.929Z,3.17
2023-05-24T16:35:56.121Z,3.70
2023-05-24T16:38:25.014Z,4.10
2023-05-24T16:40:53.715Z,3.22
2023-05-24T16:43:23.214Z,4.15
2023-05-24T16:45:51.729Z,3.08
2023-05-24T16:48:21.578Z,3.05
2023-05-24T16:50:53.963Z,3.92
2023-05-24T16:53:24.472Z,2.70
2023-05-24T16:55:54.213Z,3.15
2023-05-24T16:58:24.395Z,2.90
2023-05-24T17:00:54.535Z,3.30
2023-05-24T17:03:27.741Z,3.00
2023-05-24T17:05:56.889Z,2.78
2023-05-24T17:08:25.835Z,2.72
2023-05-24T17:10:56.222Z,3.60
2023-05-24T17:13:27.426Z,3.60
2023-05-24T17:15:56.003Z,3.72
2023-05-24T17:18:28.954Z,3.10
2023-05-24T17:20:58.401Z,3.00
2023-05-24T17:23:26.781Z,4.28
2023-05-24T17:25:55.606Z,3.58
2023-05-24T17:28:27.700Z,3.00
2023-05-24T17:30:56.345Z,3.33
2023-05-24T17:33:25.677Z,2.92
2023-05-24T17:35:56.557Z,2.30
2023-05-24T17:38:25.854Z,2.72
2023-05-24T17:40:56.969Z,3.00
2023-05-24T17:43:29.368Z,2.65
2023-05-24T17:46:03.113Z,2.95
2023-05-24T17:48:32.415Z,3.13
2023-05-24T17:51:02.024Z,3.40
2023-05-24T17:53:32.175Z,3.25
2023-05-24T17:56:01.241Z,3.10
2023-05-24T17:58:35.367Z,2.95
2023-05-24T18:01:04.950Z,3.40
2023-05-24T18:03:33.673Z,3.20
2023-05-24T18:06:03.979Z,2.90
2023-05-24T18:08:32.158Z,3.30
2023-05-24T18:11:00.212Z,2.67
2023-05-24T18:13:28.179Z,2.17
2023-05-24T18:15:58.195Z,2.40
2023-05-24T18:18:26.183Z,2.42
2023-05-24T18:20:54.340Z,2.38
2023-05-24T18:23:22.888Z,1.90
2023-05-24T18:25:51.094Z,2.45
2023-05-24T18:28:28.942Z,2.40
2023-05-24T18:30:58.686Z,2.45
2023-05-24T18:33:26.905Z,2.28
2023-05-24T18:35:55.092Z,2.63
2023-05-24T18:38:24.674Z,2.17
2023-05-24T18:40:53.156Z,2.30
2023-05-24T18:43:21.211Z,2.90
2023-05-24T18:45:49.382Z,2.63
2023-05-24T18:48:18.924Z,2.78
2023-05-24T18:50:47.963Z,3.30
2023-05-24T18:53:16.416Z,2.13
2023-05-24T18:55:45.119Z,2.05
2023-05-24T18:58:14.528Z,2.72
2023-05-24T19:00:42.928Z,2.63
2023-05-24T19:03:13.287Z,2.25
2023-05-24T19:05:44.155Z,2.58
2023-05-24T19:08:12.783Z,2.25
2023-05-24T19:10:41.477Z,2.25
2023-05-24T19:13:09.623Z,3.05
2023-05-24T19:15:38.029Z,2.95
2023-05-24T19:18:06.880Z,2.60
2023-05-24T19:20:35.295Z,2.90
2023-05-24T19:23:04.952Z,2.25
2023-05-24T19:25:40.605Z,2.50
2023-05-24T19:28:09.628Z,2.30
2023-05-24T19:30:38.081Z,2.40
2023-05-24T19:33:06.664Z,1.95
2023-05-24T19:35:35.263Z,2.22
2023-05-24T19:38:04.966Z,2.17
2023-05-24T19:40:33.403Z,2.22
2023-05-24T19:43:01.582Z,2.72
2023-05-24T19:45:29.878Z,1.92
2023-05-24T19:47:58.027Z,2.08
2023-05-24T19:50:29.019Z,2.15
2023-05-24T19:52:58.686Z,2.30
2023-05-24T19:55:28.740Z,2.33
2023-05-24T19:57:57.051Z,2.50
2023-05-24T20:00:25.407Z,2.45
2023-05-24T20:02:53.805Z,1.98
2023-05-24T20:05:22.336Z,1.95
2023-05-24T20:07:50.951Z,2.03
2023-05-24T20:10:19.363Z,2.40
2023-05-24T20:12:48.986Z,2.17
2023-05-24T20:15:18.056Z,2.17
2023-05-24T20:17:46.665Z,2.83
2023-05-24T20:20:15.348Z,2.47
2023-05-24T20:22:43.382Z,2.10
2023-05-24T20:25:12.034Z,2.70
2023-05-24T20:27:42.258Z,2.97
2023-05-24T20:30:13.554Z,2.05
2023-05-24T20:32:41.882Z,2.88
2023-05-24T20:35:10.725Z,3.10
2023-05-24T20:37:39.216Z,3.17
2023-05-24T20:40:09.665Z,3.00
2023-05-24T20:42:37.978Z,2.40
2023-05-24T20:45:07.134Z,3.35
2023-05-24T20:47:36.995Z,3.45
2023-05-24T20:50:05.596Z,3.58
2023-05-24T20:52:33.888Z,3.60
2023-05-24T20:55:02.093Z,2.60
2023-05-24T20:57:30.169Z,3.30
2023-05-24T20:59:58.411Z,3.15
2023-05-24T21:02:28.527Z,3.85
2023-05-24T21:04:58.436Z,4.07
2023-05-24T21:07:26.688Z,2.95
2023-05-24T21:09:55.149Z,2.90
2023-05-24T21:12:23.381Z,2.80
2023-05-24T21:14:53.706Z,3.10
2023-05-24T21:17:22.173Z,2.92
2023-05-24T21:19:50.300Z,3.60
2023-05-24T21:22:20.035Z,3.25
2023-05-24T21:24:48.262Z,3.20
2023-05-24T21:27:16.611Z,3.53
2023-05-24T21:29:44.892Z,3.65
2023-05-24T21:32:13.090Z,3.30
2023-05-24T21:34:41.491Z,3.58
2023-05-24T21:37:09.665Z,3.22
2023-05-24T21:39:39.239Z,3.63
2023-05-24T21:42:07.397Z,3.40
2023-05-24T21:44:35.438Z,3.38
2023-05-24T21:47:03.832Z,3.45
2023-05-24T21:49:31.954Z,4.10
2023-05-24T21:52:00.254Z,3.45
2023-05-24T21:54:28.426Z,3.65
2023-05-24T21:56:58.138Z,3.47
2023-05-24T21:59:26.365Z,3.70
2023-05-24T22:01:54.639Z,4.38
2023-05-24T22:04:22.996Z,4.80
2023-05-24T22:06:51.362Z,4.43
2023-05-24T22:09:19.582Z,4.60
2023-05-24T22:11:47.702Z,4.45
2023-05-24T22:14:17.474Z,4.32
2023-05-24T22:16:45.828Z,3.47
2023-05-24T22:19:16.910Z,4.25
2023-05-24T22:21:50.248Z,4.95
2023-05-24T22:24:19.135Z,4.63
2023-05-24T22:26:47.717Z,4.85
2023-05-24T22:29:17.544Z,4.70
2023-05-24T22:31:45.795Z,4.53
2023-05-24T22:34:14.269Z,5.10
2023-05-24T22:36:43.654Z,4.13
2023-05-24T22:39:12.019Z,3.80
2023-05-24T22:41:40.268Z,4.20
2023-05-24T22:44:08.359Z,4.10
2023-05-24T22:46:38.562Z,3.65
2023-05-24T22:49:13.349Z,4.43
2023-05-24T22:51:44.405Z,4.68
2023-05-24T22:54:12.857Z,5.00
2023-05-24T22:56:41.336Z,4.20
2023-05-24T22:59:09.773Z,4.40
2023-05-24T23:01:39.496Z,4.20
2023-05-24T23:04:20.639Z,4.38
2023-05-24T23:06:53.131Z,4.43
2023-05-24T23:09:29.404Z,4.78
2023-05-24T23:11:58.976Z,4.35
2023-05-24T23:14:30.243Z,4.47
2023-05-24T23:17:02.517Z,4.63
2023-05-24T23:19:31.138Z,5.45
2023-05-24T23:21:59.429Z,4.38
2023-05-24T23:24:27.438Z,4.47
2023-05-24T23:26:57.199Z,4.68
2023-05-24T23:29:25.288Z,4.72
2023-05-24T23:31:53.424Z,5.00
2023-05-24T23:34:22.992Z,5.55
2023-05-24T23:36:51.129Z,5.40
2023-05-24T23:39:19.579Z,5.25
2023-05-24T23:41:47.711Z,4.32
2023-05-24T23:44:16.080Z,4.35
2023-05-24T23:46:48.056Z,4.45
2023-05-24T23:49:16.301Z,5.13
2023-05-24T23:51:45.881Z,5.10
2023-05-24T23:54:15.084Z,4.75
2023-05-24T23:56:43.725Z,4.50
2023-05-24T23:59:11.850Z,4.70
